x

East Hatteras - 150 Nm East Of Cape Hatteras (41001) Wave Buoy

5:50 - Thu 27th Jul 2017 All times are EDT. -4 hours from GMT.

  • Sig Wave height 2.3ft
  • Swell Direction
  • Peak Period 7s
  • Average Period 6s
  • Wind
    2mph, 4mph gusts
  • Sea Temp 83°f
  • Aire Temp 80°f
  • Sea Pressure 1015.5mb
  • East Hatteras - 150 Nm East Of Cape Hatteras
  • East Hatteras - 150 Nm East Of Cape Hatteras

More Historic Weather Station data

Upgrade to MSW Pro to gain access to the past 30 days of data for over 8000 Wavebouys and Weather Stations around the globe.

Join Pro

Comparision Forecast

View Surf forecast
   
jue 07/27 5:50 2.5ft 7s 6s 2 4 mph 1015.5mb 83f 80f
5:40  -   -   -  4 7 mph 1015.6mb 83f 80f
5:30  -   -   -  2 7 mph 1015.6mb 83f 80f
5:20  -   -   -  4 4 mph 1015.8mb 83f 80f
5:10  -   -   -  4 7 mph 1016mb 82f 80f
5:00  -   -   -  4 7 mph 1016mb 82f 80f
4:50 2ft 9s 6s 4 7 mph 1016mb 83f 80f
4:40 2ft  -  6s 4 7 mph 1016mb 82f 80f
4:30  -   -   -  2 4 mph 1016mb 82f 80f
4:20  -   -   -  2 4 mph 1016.1mb 82f 80f
4:10  -   -   -  2 4 mph 1016.1mb 82f 80f
4:00  -   -   -  2 4 mph 1016.1mb 82f 80f
3:50 2.5ft 8s 6s 4 7 mph 1016.4mb 83f 80f
3:40 2.5ft  -  6s 4 9 mph 1016.4mb 83f 80f
3:30  -   -   -  7 9 mph 1016.5mb 83f 79f
3:20  -   -   -  7 9 mph 1016.6mb 83f 79f
3:10  -   -   -  7 9 mph 1016.9mb 82f 79f
3:00  -   -   -  7 9 mph 1017mb 82f 79f
2:50 2.5ft 6s 5s 7 9 mph 1017mb 82f 79f
2:40 2.5ft  -  5s 7 9 mph 1017mb 82f 79f
2:30  -   -   -  7 9 mph 1017.3mb 82f 79f
2:20  -   -   -  7 9 mph 1017.4mb 82f 79f
2:10  -   -   -  7 9 mph 1017.5mb 82f 79f
2:00  -   -   -  7 9 mph 1017.5mb 82f 79f
1:50 2.5ft 7s 5s 7 9 mph 1017.5mb 82f 79f
1:40 2.5ft  -  5s 7 9 mph 1017.5mb 82f 79f
1:30  -   -   -  4 7 mph 1017.5mb 82f 79f
1:20  -   -   -  4 7 mph 1017.6mb 82f 79f
1:10  -   -   -  4 7 mph 1017.6mb 82f 79f
1:00  -   -   -  7 9 mph 1017.8mb 82f 79f
12:50 2.5ft 6s 5s 4 9 mph 1017.9mb 82f 79f
12:40  -   -   -  4 7 mph 1017.9mb 82f 79f
12:30  -   -   -  4 7 mph 1018mb 82f 79f
12:20  -   -   -  2 4 mph 1018mb 82f 78f
12:10  -   -   -  4 7 mph 1018.1mb 82f 78f
12:00  -   -   -  4 9 mph 1018.3mb 82f 78f
11:50 2.5ft 5s 5s 4 9 mph 1018.4mb 82f 78f
11:40  -   -   -  7 9 mph 1018.1mb 82f 78f
11:30  -   -   -  7 9 mph 1018.1mb 82f 78f
11:20  -   -   -  7 9 mph 1018.1mb 82f 78f
11:10  -   -   -  7 9 mph 1018.3mb 82f 78f
11:00  -   -   -  7 11 mph 1018.1mb 82f 78f
10:50 2.5ft 7s 5s 7 11 mph 1018.1mb 82f 78f
10:40 2.5ft  -  5s 7 9 mph 1018.1mb 82f 78f
10:30  -   -   -  7 9 mph 1018.1mb 82f 78f
10:20  -   -   -  7 9 mph 1018.1mb 82f 78f
10:10  -   -   -  7 9 mph 1018.1mb 82f 78f
10:00  -   -   -  7 9 mph 1018mb 82f 78f
9:50 2.5ft 6s 5s 7 9 mph 1018.1mb 81f 78f
9:40  -   -   -  7 9 mph 1018.1mb 81f 78f
9:30  -   -   -  7 9 mph 1018.3mb 81f 78f
9:20  -   -   -  7 9 mph 1018.3mb 81f 78f
9:10  -   -   -  7 9 mph 1018.3mb 81f 78f
9:00  -   -   -  7 9 mph 1018.1mb 81f 78f
8:50 2.5ft 6s 5s 7 9 mph 1018.1mb 81f 78f
8:40 2.5ft  -  5s 7 9 mph 1018.1mb 81f 78f
8:30  -   -   -  4 7 mph 1018.3mb 81f 78f
8:20  -   -   -  7 9 mph 1018.3mb 81f 78f
8:10  -   -   -  4 9 mph 1018.4mb 81f 78f
8:00  -   -   -  4 7 mph 1018.5mb 81f 78f
7:50 3ft 7s 6s 4 9 mph 1018.1mb 81f 78f
7:40  -   -   -  4 9 mph 1018.1mb 81f 78f
7:30  -   -   -  4 9 mph 1018.1mb 81f 78f
7:20  -   -   -  4 7 mph 1018.1mb 81f 78f
7:10  -   -   -  4 9 mph 1018.1mb 81f 78f
7:00  -   -   -  4 7 mph 1018.1mb 81f 78f
6:50 3ft 7s 6s 4 4 mph 1018mb 81f 78f
6:40 3ft  -  6s 4 7 mph 1018mb 81f 78f
6:30  -   -   -  4 7 mph 1018.1mb 81f 78f
6:20  -   -   -  4 7 mph 1018.1mb 81f 78f
6:10  -   -   -  7 9 mph 1018.1mb 81f 78f
6:00  -   -   -  4 9 mph 1018.1mb - 77f
5:50 3ft 7s 6s 7 9 mph 1018.1mb 81f 78f
5:40 3ft  -  6s 4 7 mph 1018.1mb 82f 78f
5:30  -   -   -  4 7 mph 1018.1mb 82f 78f
5:20  -   -   -  4 7 mph 1018.3mb 82f 78f
5:10  -   -   -  4 7 mph 1018.1mb 82f 78f
5:00  -   -   -  4 7 mph 1018.1mb 82f 78f
4:50 3ft 6s 6s 4 7 mph 1018.1mb 82f 78f
4:40  -   -   -  4 7 mph 1018.1mb 82f 78f
4:30  -   -   -  4 7 mph 1018.3mb 82f 78f
4:20  -   -   -  4 7 mph 1018.4mb 82f 78f
4:10  -   -   -  4 7 mph 1018.4mb 82f 78f
4:00  -   -   -  4 7 mph 1018.4mb 82f 78f
3:50 3.5ft 6s 6s 2 4 mph 1018.5mb 82f 78f
3:40 3.5ft  -  6s 2 4 mph 1018.4mb 82f 78f
3:30  -   -   -  2 7 mph 1018.4mb 82f 78f
3:20  -   -   -  2 4 mph 1018.4mb 82f 78f
3:10  -   -   -  2 4 mph 1018.4mb 82f 78f
3:00  -   -   -  2 4 mph 1018.4mb - 78f
2:50 3.5ft 7s 5s 2 7 mph 1018.3mb 82f 78f
2:40  -   -   -  4 7 mph 1018.3mb 82f 78f
2:30  -   -   -  7 9 mph 1018.3mb 82f 78f
2:20  -   -   -  4 9 mph 1018.5mb 82f 78f
2:10  -   -   -  4 9 mph 1018.5mb 81f 78f
2:00  -   -   -  7 9 mph 1018.5mb 81f 78f
1:50 3.5ft 7s 5s 7 9 mph 1018.5mb 81f 78f
1:40  -   -   -  7 9 mph 1018.5mb 81f 78f
1:30  -   -   -  7 9 mph 1018.6mb 81f 78f
1:20  -   -   -  7 11 mph 1018.5mb 81f 78f
1:10  -   -   -  9 11 mph 1018.6mb 81f 78f
1:00  -   -   -  9 11 mph 1018.6mb 81f 78f
12:50 3.5ft 7s 6s 9 11 mph 1018.9mb 81f 78f
12:40 3.5ft  -  6s 9 13 mph 1018.8mb 81f 78f
12:30  -   -   -  9 13 mph 1018.9mb 81f 79f
12:20  -   -   -  9 13 mph 1019mb 81f 79f
12:10  -   -   -  9 13 mph 1019mb 81f 78f
12:00  -   -   -  11 13 mph 1019mb 81f 79f
mié 07/26 11:50 3.5ft 7s 5s 9 11 mph 1019mb 81f 78f
11:40 3.5ft  -  5s 9 13 mph 1019mb 81f 78f
11:30  -   -   -  9 11 mph 1019mb 81f 78f
11:20  -   -   -  11 13 mph 1019mb 81f 79f
11:10  -   -   -  9 13 mph 1019.1mb 81f 78f
11:00  -   -   -  11 13 mph 1019mb 81f 78f
10:50 4ft 7s 5s 11 13 mph 1019.3mb 81f 78f
10:40  -   -   -  11 13 mph 1019.4mb 81f 79f
10:30  -   -   -  11 13 mph 1019.4mb 81f 79f
10:20  -   -   -  11 13 mph 1019.3mb 81f 79f
10:10  -   -   -  11 13 mph 1019.4mb 81f 79f
10:00  -   -   -  11 13 mph 1019.4mb 81f 79f
9:50 3.5ft 7s 5s 11 13 mph 1019.5mb 81f 79f
9:40  -   -   -  11 16 mph 1019.4mb 81f 79f
9:30  -   -   -  11 13 mph 1019.3mb 81f 79f
9:20  -   -   -  11 16 mph 1019.1mb 82f 79f
9:10  -   -   -  11 16 mph 1019mb 82f 79f
9:00  -   -   -  11 16 mph 1019.1mb 82f -
8:50 4ft  -  6s 11 13 mph 1019.3mb 82f 79f
8:40 4ft 7s 6s  -  mph - - -
8:30  -   -   -  11 13 mph 1019.4mb 82f 79f
8:20  -   -   -  11 16 mph 1019.1mb 82f 79f
8:10  -   -   -  11 16 mph 1019.3mb 82f 79f
8:00  -   -   -  11 16 mph 1019.1mb 82f 79f
7:50 3.5ft 7s 5s 11 16 mph 1019mb 82f 79f
7:40  -   -   -  11 13 mph 1019mb 82f 79f
7:30  -   -   -  11 13 mph 1019mb 82f 79f
7:20  -   -   -  11 13 mph 1019mb 82f 79f
7:10  -   -   -  11 16 mph 1019mb 82f 79f
7:00  -   -   -  11 13 mph 1018.9mb 82f 79f
6:50 3.5ft 7s 5s 11 13 mph 1018.8mb 82f 79f
6:40 3.5ft  -  5s 11 16 mph 1018.6mb 82f 79f
6:30  -   -   -  11 16 mph 1018.6mb 82f 79f
6:20  -   -   -  11 13 mph 1018.6mb 82f 79f
6:10  -   -   -  11 16 mph 1018.8mb 82f 79f
6:00  -   -   -  11 13 mph 1018.8mb 82f 79f
5:50 4ft 7s 5s 11 13 mph 1019mb 82f 79f
5:40  -   -   -  11 16 mph 1019.1mb 82f 79f
5:30  -   -   -  9 13 mph 1019.3mb 82f 79f
5:20  -   -   -  11 13 mph 1019.3mb 82f 79f
5:10  -   -   -  11 13 mph 1019.1mb 82f 79f
5:00  -   -   -  11 13 mph 1019.3mb 82f 79f
4:50 3.5ft 7s 5s 11 13 mph 1019.3mb 82f 79f
4:40  -   -   -  11 16 mph 1019.3mb 82f 79f
4:30  -   -   -  11 16 mph 1019.4mb 82f 79f
4:20  -   -   -  11 16 mph 1019.4mb 82f 79f
4:10  -   -   -  11 16 mph 1019.3mb 82f 79f
4:00  -   -   -  13 16 mph 1019.4mb 82f 79f
3:50 4ft 6s 5s 11 16 mph 1019.5mb 82f 79f
3:40  -   -   -  11 16 mph 1019.5mb 82f 79f
3:30  -   -   -  11 16 mph 1019.5mb 82f 79f
3:20  -   -   -  11 16 mph 1019.6mb 82f 79f
3:10  -   -   -  13 16 mph 1019.6mb 82f 79f
3:00  -   -   -  13 16 mph 1019.8mb 82f 79f
2:50 4.5ft 7s 5s 13 18 mph 1019.8mb 82f 79f
2:40  -   -   -  13 18 mph 1019.9mb 82f 79f
2:30  -   -   -  13 18 mph 1020mb 82f 79f
2:20  -   -   -  13 18 mph 1019.9mb 82f 80f
2:10  -   -   -  13 18 mph 1020mb 82f 79f
2:00  -   -   -  13 18 mph 1020mb 82f 79f
1:50 4.5ft 6s 5s 16 18 mph 1020mb 82f 79f
1:40  -   -   -  16 18 mph 1020mb 82f 80f
1:30  -   -   -  16 18 mph 1020mb 82f 80f
1:20  -   -   -  13 16 mph 1020.1mb 82f 80f
1:10  -   -   -  13 16 mph 1020.1mb 82f 80f
1:00  -   -   -  13 18 mph 1020.3mb 82f 80f
12:50 4.5ft 7s 5s 13 18 mph 1020.3mb 82f 80f
12:40 4.5ft  -  5s 13 16 mph 1020.1mb 82f 80f
12:30  -   -   -  13 18 mph 1020.1mb 82f 80f
12:20  -   -   -  13 18 mph 1020mb 82f 80f
12:10  -   -   -  13 18 mph 1020mb 82f 80f
12:00  -   -   -  13 18 mph 1020mb 81f 80f
11:50 4.5ft 6s 5s 13 18 mph 1019.9mb 81f 80f
11:40  -   -   -  13 16 mph 1020mb 81f 80f
11:30  -   -   -  11 16 mph 1020mb 81f 80f
11:20  -   -   -  13 16 mph 1020mb 81f 80f
11:10  -   -   -  13 16 mph 1020mb 81f 80f
11:00  -   -   -  13 16 mph 1020mb 81f 80f
10:50 4.5ft 6s 5s 13 18 mph 1020mb 81f 80f
10:40  -   -   -  13 16 mph 1020mb 81f 80f
10:30  -   -   -  13 18 mph 1020mb 81f 80f
10:20  -   -   -  13 16 mph 1020mb 81f 80f
10:10  -   -   -  13 16 mph 1019.9mb 81f 80f
10:00  -   -   -  13 18 mph 1019.9mb 81f 80f
9:50 4ft 7s 5s 16 20 mph 1019.8mb 81f 80f
9:40 4ft  -  5s 16 18 mph 1019.9mb 81f 80f
9:30  -   -   -  13 18 mph 1020mb 81f 80f
9:20  -   -   -  13 16 mph 1020mb 81f 80f
9:10  -   -   -  13 18 mph 1020mb 81f 80f
9:00  -   -   -  13 18 mph 1020mb 81f 80f
8:50 4ft 7s 5s 16 18 mph 1020mb 81f 80f
8:40  -   -   -  16 20 mph 1019.9mb 81f 80f
8:30  -   -   -  13 16 mph 1020mb 81f 80f
8:20  -   -   -  13 18 mph 1020mb 81f 80f
8:10  -   -   -  13 18 mph 1020mb 81f 80f
8:00  -   -   -  13 16 mph 1019.9mb 81f 79f
7:50 4.5ft 7s 5s 11 16 mph 1020mb 81f 79f
7:40 4.5ft  -  5s 11 16 mph 1019.9mb 81f 80f
7:30  -   -   -  9 11 mph 1019.8mb 81f 80f
7:20  -   -   -  9 11 mph 1019.5mb 81f 80f
7:10  -   -   -  9 13 mph 1019.5mb 81f 80f
7:00  -   -   -  11 13 mph 1019.4mb 81f 80f
6:50 4ft 7s 5s 11 13 mph 1019.4mb 81f 79f
6:40  -   -   -  11 13 mph 1019.3mb 81f 79f
6:30  -   -   -  9 16 mph 1019mb 81f 79f
6:20  -   -   -  9 11 mph 1019mb 81f 79f
6:10  -   -   -  9 13 mph 1019mb 81f 79f
6:00  -   -   -  9 13 mph 1019mb 81f 79f
5:50 4ft 7s 5s 9 11 mph 1019mb 81f 79f
5:40 4ft  -  5s 7 11 mph 1018.9mb 81f 79f
5:30  -   -   -  4 9 mph 1018.9mb 81f 79f
5:20  -   -   -  4 7 mph 1018.9mb 81f 78f
5:10  -   -   -  4 7 mph 1018.9mb 81f 78f
5:00  -   -   -  2 4 mph 1018.9mb 81f 78f
4:50 3.5ft 7s 5s  -  2 mph 1018.9mb 81f 78f
4:40 3.5ft  -  5s 2 4 mph 1019mb 81f 78f
4:30  -   -   -  4 7 mph 1019mb 81f 78f
4:20  -   -   -  4 7 mph 1018.8mb 81f 78f
4:10  -   -   -  4 4 mph 1018.8mb 81f 78f
4:00  -   -   -  4 4 mph 1018.8mb 81f 78f
3:50 4ft 7s 6s 4 7 mph 1019mb 81f 78f
3:40 4ft  -  6s 7 9 mph 1019mb 81f 78f
3:30  -   -   -  7 9 mph 1019mb 81f 78f
3:20  -   -   -  9 11 mph 1019mb 81f 78f
3:10  -   -   -  7 9 mph 1019mb 81f 78f
3:00  -   -   -  7 11 mph 1018.9mb 81f 78f
2:50 4.5ft 7s 6s 4 7 mph 1019mb 81f 78f
2:40  -   -   -  4 7 mph 1019.1mb 81f 78f
2:30  -   -   -  4 7 mph 1019mb 81f 78f
2:20  -   -   -  2 4 mph 1019mb 81f 78f
2:10  -   -   -   -  2 mph 1019.1mb 81f 78f
2:00  -   -   -   -  2 mph 1019.4mb 81f 77f
1:50 4.5ft 7s 6s 2 4 mph 1019.3mb 81f 77f
1:40 4.5ft  -  6s  -  2 mph 1019.1mb 81f 77f
1:30  -   -   -   -  2 mph 1019.1mb 81f 76f
1:20  -   -   -  2 4 mph 1019.1mb 81f 77f
1:10  -   -   -   -  4 mph 1019mb 81f 77f
1:00  -   -   -  2 4 mph 1019.1mb 81f 76f
12:50 4.5ft 7s 6s 4 7 mph 1019.1mb 81f 77f
12:40  -   -   -  2 4 mph 1019.4mb 81f 77f
12:30  -   -   -  7 9 mph 1019.5mb - 78f
12:20  -   -   -  9 11 mph 1019.3mb 81f 78f
12:10  -   -   -  11 13 mph 1019.4mb 81f 78f
12:00  -   -   -  9 13 mph 1019.3mb 81f 78f
mar 07/25 11:50 4.5ft 7s 6s 9 13 mph 1019.3mb 81f 79f
11:40  -   -   -  9 13 mph 1019.4mb 81f 79f
11:30  -   -   -  7 11 mph 1019.5mb 81f 79f
11:20  -   -   -  9 16 mph 1019.5mb 81f 79f
11:10  -   -   -  9 13 mph 1019.5mb 81f 80f
11:00  -   -   -  9 13 mph 1019.4mb 81f 81f
10:50 5ft 7s 6s 9 11 mph 1019.4mb 81f 81f
10:40 5ft  -  6s 9 13 mph 1019.3mb 81f 81f
10:30  -   -   -  11 13 mph 1019.1mb 81f 81f
10:20  -   -   -  9 13 mph 1019mb 81f 81f
10:10  -   -   -  9 13 mph 1019mb 81f 81f
10:00  -   -   -  11 13 mph 1019mb 81f 81f
9:50 5ft 8s 6s 9 13 mph 1019mb 81f 81f
9:40  -   -   -  11 13 mph 1019mb 81f 81f
9:30  -   -   -  11 13 mph 1018.8mb 81f 81f
9:20  -   -   -  11 13 mph 1018.8mb 81f 81f
9:10  -   -   -  11 13 mph 1018.8mb 81f 81f
9:00  -   -   -  11 13 mph 1018.9mb 81f 81f
8:50 5.5ft 8s 6s 11 16 mph 1018.9mb 81f 81f
8:40  -   -   -  11 16 mph 1018.8mb 81f 81f
8:30  -   -   -  11 16 mph 1018.6mb 81f 81f
8:20  -   -   -  11 16 mph 1018.5mb 81f 81f
8:10  -   -   -  11 16 mph 1018.6mb 81f 81f
8:00  -   -   -  11 16 mph 1018.5mb 81f 81f
7:50 5ft 8s 6s 11 16 mph 1018.5mb 81f 81f
7:40 5ft  -  6s 13 18 mph 1018.5mb 81f 81f
7:30  -   -   -  13 18 mph 1018.4mb 81f 80f
7:20  -   -   -  13 18 mph 1018.1mb 81f 81f
7:10  -   -   -  13 18 mph 1018.1mb 81f 80f
7:00  -   -   -  16 18 mph 1018.1mb 81f 80f
6:50 5.5ft 7s 5s 13 18 mph 1018.1mb 81f 80f
6:40 5.5ft  -  5s 16 20 mph 1018.4mb 81f 80f
6:30  -   -   -  18 22 mph 1018mb 81f 80f
6:20  -   -   -  18 22 mph 1018mb 81f 80f
6:10  -   -   -  18 22 mph 1018.1mb 81f 80f
6:00  -   -   -  18 22 mph 1018.1mb 81f 80f
5:50 6ft 8s 6s 18 22 mph 1018mb 81f 80f
5:40 6ft  -  6s 16 20 mph 1018mb 81f 80f
5:30  -   -   -  16 20 mph 1018mb 81f 80f
5:20  -   -   -  16 18 mph 1018mb 81f 80f
5:10  -   -   -  16 20 mph 1018mb 81f 79f
5:00  -   -   -  16 20 mph 1018mb 81f 79f
4:50 6ft 8s 6s 16 18 mph 1018mb 81f 79f
4:40  -   -   -  13 18 mph 1017.9mb 81f 79f
4:30  -   -   -  13 18 mph 1017.9mb 81f 78f
4:20  -   -   -  13 18 mph 1018mb 81f 78f
4:10  -   -   -  16 20 mph 1018.1mb 81f 78f
4:00  -   -   -  16 20 mph 1018.1mb 81f 79f
3:50 6.5ft 8s 6s 16 20 mph 1018.4mb 81f 79f
3:40  -   -   -  18 22 mph 1018.5mb 81f 78f
3:30  -   -   -  18 22 mph 1018.5mb 81f 78f
3:20  -   -   -  18 25 mph 1018.6mb 81f 78f
3:10  -   -   -  20 25 mph 1018.8mb 81f 78f
3:00  -   -   -  18 22 mph 1019mb 81f 78f
2:50 6.5ft 7s 6s 18 22 mph 1019.1mb 81f 79f
2:40  -   -   -  18 22 mph 1019.4mb 81f 78f
2:30  -   -   -  18 22 mph 1019.4mb 81f 78f
2:20  -   -   -  18 22 mph 1019.5mb 81f 78f
2:10  -   -   -  18 22 mph 1019.5mb 81f 77f
2:00  -   -   -  16 22 mph 1019.5mb 81f 77f
1:50 6ft 8s 6s 16 20 mph 1019.5mb 81f 76f
1:40  -   -   -  18 22 mph 1019.5mb 81f 76f
1:30  -   -   -  18 31 mph 1019.8mb 81f 77f
1:20  -   -   -  13 20 mph 1019.5mb 81f 78f
1:10  -   -   -  16 25 mph 1019.4mb 81f 78f
1:00  -   -   -  16 20 mph 1019.4mb 81f 79f
12:50 6.5ft 7s 6s 13 18 mph 1019.3mb 81f 78f
12:40  -   -   -  16 20 mph 1019.1mb 81f 78f
12:30  -   -   -  20 27 mph 1019.4mb 81f 78f
12:20  -   -   -  16 27 mph 1019.3mb 81f 79f
12:10  -   -   -  13 18 mph 1019.3mb 81f 79f
12:00  -   -   -  11 18 mph 1019.4mb 81f 78f
11:50 7ft 8s 6s 11 20 mph 1019.1mb 81f 79f
11:40  -   -   -  9 13 mph 1019mb 81f 79f
11:30  -   -   -  9 13 mph 1018.9mb 81f 79f
11:20  -   -   -  11 16 mph 1018.8mb 81f 78f
11:10  -   -   -  16 22 mph 1018.8mb 81f 78f
11:00  -   -   -  16 22 mph 1018.6mb 81f 79f
10:50 6.5ft 8s 6s 16 20 mph 1018.5mb 81f 79f
10:40  -   -   -  16 20 mph 1018.6mb 81f 78f
10:30  -   -   -  16 20 mph 1018.9mb - 78f
10:20  -   -   -  16 22 mph 1018.9mb 81f 78f
10:10  -   -   -  18 20 mph 1019mb 81f 78f
10:00  -   -   -  20 25 mph 1019mb 81f 77f
9:50 7.5ft 8s 6s 22 29 mph 1019mb 81f 77f
9:40 7.5ft  -  6s 22 29 mph 1019mb 81f 77f
9:30  -   -   -  22 27 mph 1018.8mb 81f 76f
9:20  -   -   -  20 27 mph 1018.6mb 81f 76f
9:10  -   -   -  22 31 mph 1018.5mb 81f 77f
9:00  -   -   -  27 34 mph 1018.1mb 81f 77f
8:50 7.5ft 8s 6s 25 31 mph 1018mb 81f 79f
8:40  -   -   -  20 27 mph 1017.9mb 81f 81f
8:30  -   -   -  18 22 mph 1017.6mb 81f 81f
8:20  -   -   -  18 22 mph 1017.5mb 81f 80f
8:10  -   -   -  20 27 mph 1017.6mb 81f 80f
8:00  -   -   -  22 31 mph 1017.9mb 81f 80f
7:50 8.5ft 8s 6s 22 31 mph 1017.5mb 81f 81f
7:40 8.5ft  -  6s 20 25 mph 1017.5mb 81f 82f
7:30  -   -   -  20 25 mph 1017.5mb 81f 82f
7:20  -   -   -  20 27 mph 1017.4mb 81f 82f
7:10  -   -   -  20 25 mph 1017.5mb 81f 82f
7:00  -   -   -  20 25 mph 1017.4mb 81f 82f
6:50 7ft 8s 6s 20 25 mph 1017.1mb 81f 82f
6:40 7ft  -  6s 20 27 mph 1017.3mb 81f 82f
6:30  -   -   -  20 25 mph 1017.4mb 81f 82f
6:20  -   -   -  18 25 mph 1017.4mb 81f 82f
6:10  -   -   -  18 27 mph 1017.5mb 81f 81f
6:00  -   -   -  22 34 mph 1017.4mb 81f 81f
5:50 7.5ft 7s 6s 18 25 mph 1017.4mb 81f 82f
5:40  -   -   -  20 25 mph 1017.5mb 81f 82f
5:30  -   -   -  20 25 mph 1017.4mb 81f 82f
5:20  -   -   -  18 25 mph 1017.1mb 81f 82f
5:10  -   -   -  18 22 mph 1016.9mb 81f 81f
5:00  -   -   -  18 25 mph 1016.8mb 81f 81f
4:50 7.5ft 8s 6s 20 25 mph 1016.9mb 81f 81f
4:40  -   -   -  20 25 mph 1017mb 81f 81f
4:30  -   -   -  20 25 mph 1017.1mb 81f 81f
4:20  -   -   -  22 27 mph 1017mb 81f 81f
4:10  -   -   -  20 25 mph 1016.8mb 81f 81f
4:00  -   -   -  20 25 mph 1016.8mb 81f 80f
3:50 8ft 8s 6s 22 27 mph 1016.8mb 81f 81f
3:40  -   -   -  18 25 mph 1016.8mb 81f 82f
3:30  -   -   -  20 25 mph 1017mb 81f 82f
3:20  -   -   -  20 25 mph 1017mb 81f 82f
3:10  -   -   -  18 27 mph 1016.9mb 81f 82f
3:00  -   -   -  20 25 mph 1016.9mb 81f 82f
2:50 7.5ft 7s 6s 20 27 mph 1016.9mb 81f 82f
2:40  -   -   -  22 29 mph 1017mb 81f 82f
2:30  -   -   -  25 31 mph 1017mb 81f 82f
2:20  -   -   -  25 29 mph 1016.9mb 81f 82f
2:10  -   -   -  25 31 mph 1016.9mb 81f 82f
2:00  -   -   -  22 31 mph 1016.9mb 81f 81f
1:50 8ft 8s 6s 22 29 mph 1016.9mb 81f 82f
1:40  -   -   -  22 29 mph 1016.9mb 81f 82f
1:30  -   -   -  22 29 mph 1017mb 81f 82f
1:20  -   -   -  20 27 mph 1017mb 81f 82f
1:10  -   -   -  20 25 mph 1017mb 81f 82f
1:00  -   -   -  20 27 mph 1017mb 81f 82f
12:50 9ft 8s 6s 22 29 mph 1017.1mb 81f 82f
12:40  -   -   -  22 27 mph 1017.4mb 81f 82f
12:30  -   -   -  20 25 mph 1017.4mb 81f 82f
12:20  -   -   -  22 29 mph 1017mb - 82f
12:10  -   -   -  20 27 mph 1017mb 81f 82f
12:00  -   -   -  25 29 mph 1017.1mb 81f 82f
lun 07/24 11:50 8ft 8s 6s 20 29 mph 1017.1mb 81f 82f
11:40  -   -   -  22 27 mph 1017mb 81f 82f
11:30  -   -   -  25 31 mph 1016.9mb 81f 82f
11:20  -   -   -  20 25 mph 1017mb 81f 82f
11:10  -   -   -  20 27 mph 1017mb 81f 82f
11:00  -   -   -  22 29 mph 1017mb 81f 82f
10:50 8ft 7s 6s 25 31 mph 1017.1mb 81f 82f
10:40  -   -   -  22 27 mph 1017.3mb 81f 82f
10:30  -   -   -  22 29 mph 1017.1mb 81f 82f
10:20  -   -   -  22 29 mph 1017.3mb 81f 82f
10:10  -   -   -  22 29 mph 1017mb 81f 82f
10:00  -   -   -  22 29 mph 1017mb 81f 82f
9:50 8ft 8s 6s 22 27 mph 1016.9mb 81f 82f
9:40 8ft  -  6s 22 29 mph 1016.8mb 81f 82f
9:30  -   -   -  22 29 mph 1016.4mb 81f 82f
9:20  -   -   -  20 27 mph 1016.3mb 81f 82f
9:10  -   -   -  22 27 mph 1016.1mb 82f 82f
9:00  -   -   -  20 25 mph 1016.1mb 82f 82f
8:50 8ft 8s 6s 20 29 mph 1016mb 82f 82f
8:40 8ft  -  6s 20 27 mph 1016mb 81f 82f
8:30  -   -   -  22 29 mph 1016.1mb 81f 82f
8:20  -   -   -  22 27 mph 1016.1mb 82f 82f
8:10  -   -   -  20 27 mph 1016mb 82f 82f
8:00  -   -   -  20 27 mph 1016mb 82f 82f
7:50 8ft 8s 6s 20 27 mph 1016mb 82f 82f
7:40 8ft  -  6s 22 29 mph 1016mb 82f 82f
7:30  -   -   -  22 27 mph 1016mb 82f 82f
7:20  -   -   -  22 27 mph 1016mb 82f 81f
7:10  -   -   -  18 25 mph 1016.1mb 82f 80f
7:00  -   -   -  22 34 mph 1016mb 82f 81f
6:50 7.5ft 8s 6s 22 29 mph 1016mb 82f 82f
6:40 7.5ft  -  6s 20 25 mph 1016.1mb 82f 82f
6:30  -   -   -  20 27 mph 1016mb - 82f
6:20  -   -   -  20 27 mph 1016mb 82f 82f
6:10  -   -   -  20 25 mph 1016mb 82f 82f
6:00  -   -   -  20 25 mph 1016.1mb 82f 82f
5:50 7ft 8s 6s 22 27 mph 1016mb 82f 82f
5:40  -   -   -  22 27 mph 1016.1mb 82f 82f
5:30  -   -   -  22 27 mph 1016mb 82f 83f
5:20  -   -   -  22 27 mph 1016mb 82f 83f
5:10  -   -   -  22 27 mph 1016mb 82f 83f
5:00  -   -   -  18 22 mph 1016mb 82f 82f
4:50 7.5ft 8s 6s 18 22 mph 1016mb 82f 82f
4:40  -   -   -  16 22 mph 1015.8mb 82f 82f
4:30  -   -   -  18 22 mph 1015.8mb 82f 82f
4:20  -   -   -  18 22 mph 1015.6mb 82f 82f
4:10  -   -   -  18 22 mph 1015.6mb 82f 82f
4:00  -   -   -  22 29 mph 1015.6mb 82f 83f
3:50 8ft 8s 6s 22 29 mph 1015.6mb 82f 83f
3:40 8ft  -  6s 22 29 mph 1015.6mb 82f 83f
3:30  -   -   -  22 29 mph 1015.6mb 82f 83f
3:20  -   -   -  20 27 mph 1015.8mb 82f 83f
3:10  -   -   -  20 25 mph 1015.8mb 82f 83f
3:00  -   -   -  20 27 mph 1015.6mb 82f 83f
2:50 8ft 8s 6s 22 27 mph 1016mb 82f 83f
2:40  -   -   -  20 27 mph 1016.1mb 82f 83f
2:30  -   -   -  22 29 mph 1016.3mb 82f 83f
2:20  -   -   -  20 29 mph 1016mb 82f 83f
2:10  -   -   -  20 25 mph 1016.5mb 82f 83f
2:00  -   -   -  18 25 mph 1016.5mb 82f 83f
1:50 7.5ft 8s 6s 20 27 mph 1016.9mb 82f 83f
1:40  -   -   -  18 25 mph 1016.9mb 82f 83f
1:30  -   -   -  18 25 mph 1017mb 82f 83f
1:20  -   -   -  18 22 mph 1016.9mb 82f 82f
1:10  -   -   -  16 22 mph 1016.9mb 82f 82f
1:00  -   -   -  16 20 mph 1016.6mb 82f 82f
12:50 7.5ft 8s 6s 16 20 mph 1016.9mb 82f 82f
12:40  -   -   -  18 22 mph 1017mb 82f 82f
12:30  -   -   -  16 22 mph 1017mb - 82f
12:20  -   -   -  18 22 mph 1017.3mb 82f 82f
12:10  -   -   -  18 22 mph 1017.3mb 82f 82f
12:00  -   -   -  16 22 mph 1017.1mb 82f 82f
11:50 7.5ft 8s 6s 16 20 mph 1017.3mb 82f 81f
11:40 7.5ft  -  6s 18 27 mph 1017.4mb 82f 81f
11:30  -   -   -  20 25 mph 1017.4mb 82f 81f
11:20  -   -   -  18 25 mph 1017.4mb 82f 81f
11:10  -   -   -  18 25 mph 1017.4mb 82f 81f
11:00  -   -   -  20 27 mph 1017.4mb 82f 80f
10:50 8.5ft 7s 6s 20 27 mph 1017.4mb 82f 80f
10:40  -   -   -  20 29 mph 1017.1mb 82f 80f
10:30  -   -   -  22 27 mph 1016.9mb 82f 80f
10:20  -   -   -  22 29 mph 1016.5mb 82f 79f
10:10  -   -   -  25 34 mph 1016.5mb 82f 78f
10:00  -   -   -  27 34 mph 1016.8mb 82f 77f
9:50 9ft 8s 6s 29 38 mph 1016.9mb 82f 78f
9:40 9ft  -  6s 27 40 mph 1017mb 82f 80f
9:30  -   -   -  22 29 mph 1016.6mb 82f 80f
9:20  -   -   -  25 29 mph 1016.5mb 82f 80f
9:10  -   -   -  22 29 mph 1016.3mb 82f 80f
9:00  -   -   -  22 29 mph 1016mb 82f 80f
8:50 9ft 8s 6s 22 27 mph 1015.9mb 82f 80f
8:40  -   -   -  25 29 mph 1015.9mb 82f 80f
8:30  -   -   -  22 29 mph 1016mb 82f 79f
8:20  -   -   -  25 31 mph 1015.9mb 82f 79f
8:10  -   -   -  29 36 mph 1016mb 82f 78f
8:00  -   -   -  34 43 mph 1016.3mb 82f 79f
7:50 7.5ft 8s 6s 25 31 mph 1016mb 82f 82f
7:40 7.5ft  -  6s 22 29 mph 1015.8mb 82f 82f
7:30  -   -   -  20 27 mph 1015.5mb 82f 82f
7:20  -   -   -  20 25 mph 1015.3mb 82f 82f
7:10  -   -   -  20 27 mph 1015.1mb 82f 82f
7:00  -   -   -  20 25 mph 1015mb 82f 80f
6:50 8ft 8s 6s 22 34 mph 1015.1mb 82f 81f
6:40 8ft  -  6s 22 27 mph 1015mb 82f 83f
6:30  -   -   -  22 27 mph 1015mb 82f 83f
6:20  -   -   -  25 29 mph 1014.8mb 82f 83f
6:10  -   -   -  22 29 mph 1014.8mb 82f 83f
6:00  -   -   -  25 31 mph 1014.5mb - 83f
5:50 9ft 8s 6s 22 29 mph 1014.4mb 82f 83f
5:40 9ft  -  6s 22 29 mph 1014.4mb 82f 83f
5:30  -   -   -  25 29 mph 1014.1mb 82f 83f
5:20  -   -   -  25 31 mph 1014.3mb 82f 83f
5:10  -   -   -  27 31 mph 1014.1mb 82f 83f
5:00  -   -   -  25 31 mph 1014mb 82f 83f
4:50 8.5ft 8s 6s 25 31 mph 1014.1mb 82f 82f
4:40  -   -   -  22 29 mph 1013.9mb 82f 83f
4:30  -   -   -  25 31 mph 1013.9mb 82f 83f
4:20  -   -   -  20 29 mph 1013.6mb 82f 82f
4:10  -   -   -  22 27 mph 1013.6mb 82f 82f
4:00  -   -   -  25 29 mph 1013.9mb 82f 82f
3:50 8.5ft 7s 6s 22 29 mph 1014mb 82f 82f
3:40 8.5ft  -  6s 22 31 mph 1014mb 82f 83f
3:30  -   -   -  25 31 mph 1014mb 82f 82f
3:20  -   -   -  22 29 mph 1014mb 82f 83f
3:10  -   -   -  22 27 mph 1013.9mb 82f 83f
3:00  -   -   -  22 27 mph 1013.9mb 82f 83f
2:50 8.5ft 8s 6s 22 29 mph 1013.8mb 82f 83f
2:40  -   -   -  22 27 mph 1013.9mb 82f 83f
2:30  -   -   -  25 34 mph 1013.9mb 82f 83f
2:20  -   -   -  25 31 mph 1014mb 82f 83f
2:10  -   -   -  25 31 mph 1014mb 82f 83f
2:00  -   -   -  25 29 mph 1014.1mb 82f 83f
1:50 8ft 7s 6s 25 31 mph 1014mb 82f 83f
1:40  -   -   -  22 29 mph 1014.1mb 82f 83f
1:30  -   -   -  22 29 mph 1014.1mb 82f 83f
1:20  -   -   -  22 29 mph 1014.1mb 82f 83f
1:10  -   -   -  22 29 mph 1014mb 82f 83f
1:00  -   -   -  22 29 mph 1014.3mb 82f 83f
12:50 8ft 7s 6s 22 29 mph 1014.5mb 82f 83f
12:40  -   -   -  22 29 mph 1014.6mb 82f 83f
12:30  -   -   -  25 29 mph 1014.9mb - 83f
12:20  -   -   -  25 29 mph 1015mb 82f 83f
12:10  -   -   -  25 31 mph 1015.3mb 82f 83f
12:00  -   -   -  22 29 mph 1015.4mb 82f 83f
dom 07/23 11:50 8ft 7s 6s 25 29 mph 1015.5mb 82f 83f
11:40  -   -   -  25 34 mph 1015.4mb 82f 83f
11:30  -   -   -  27 31 mph 1015.4mb 82f 83f
11:20  -   -   -  25 31 mph 1015.4mb 82f 83f
11:10  -   -   -  25 29 mph 1015.5mb 82f 83f
11:00  -   -   -  22 31 mph 1015.5mb 82f 83f
10:50 7ft 7s 6s 22 29 mph 1015.3mb 82f 83f